Alder Creek, New York
Current Conditions -  °F | °C
As of 3:53 AM on Friday 24 Oct 2014 (Local Time) from KRME Reporting Station
Overcast Overcast  
Wind Chill:   Ceiling: 2100
Heat Index:   Visibility: 10mi
Dew Point:   Wind: 9mph
Humidity: 80%   Direction: 310°NW
Pressure: 29.91"   Gusts: NA
Location:  43.42°N, 75.23°W
Report Text: KRME 240753Z AUTO 31008KT 10SM OVC021 08/05 A2991 RMK AO2 SLP127 T00830050
Loading
Personal Weather Stations






























Interactive Weather Map
Tropical Storm Tracking
New forecast layout! Learn more

10-Day Weather Forecast

Advertisements
Track Severe Weather on mobile